Time;durP1;ratioP1;P1;durP2;ratioP2;P2;SDS_P1;SDS_P2;PMS_P1;PMS_P2;Temp;Humidity;BMP_temperature;BMP_pressure;BME280_temperature;BME280_humidity;BME280_pressure;Samples;Min_cycle;Max_cycle;Signal;HPM_P1;HPM_P2
2022/02/28 00:01:06;;;;;;;2.42;2.22;;;;;;;3.70;56.47;101925.19;454921;114;923018;-72
2022/02/28 00:02:10;;;;;;;2.52;2.28;;;;;;;3.69;56.60;101921.64;456796;114;922919;-71
2022/02/28 00:03:13;;;;;;;4.18;2.80;;;;;;;3.69;56.60;101921.64;457163;114;922528;-72
2022/02/28 00:04:18;;;;;;;3.27;2.72;;;;;;;3.69;56.46;101918.13;458899;114;922519;-71
2022/02/28 00:05:21;;;;;;;2.88;2.44;;;;;;;3.66;56.50;101930.02;458066;114;922637;-71
2022/02/28 00:06:24;;;;;;;3.26;2.23;;;;;;;3.65;56.50;101922.91;458845;114;922553;-71
2022/02/28 00:07:27;;;;;;;3.27;2.40;;;;;;;3.64;56.64;101929.30;459108;114;922955;-72
2022/02/28 00:08:30;;;;;;;3.47;1.98;;;;;;;3.65;56.76;101920.22;460604;114;930335;-71
2022/02/28 00:09:33;;;;;;;2.49;2.29;;;;;;;3.69;56.73;101916.25;456374;114;922967;-71
2022/02/28 00:10:36;;;;;;;2.26;2.06;;;;;;;3.72;56.64;101917.83;458071;114;922563;-71
2022/02/28 00:11:39;;;;;;;2.41;2.19;;;;;;;3.72;56.53;101915.98;456465;114;922625;-72
2022/02/28 00:12:43;;;;;;;2.41;2.16;;;;;;;3.73;56.51;101912.30;457415;114;922631;-72
2022/02/28 00:13:46;;;;;;;2.09;1.90;;;;;;;3.74;56.48;101918.55;458055;114;922593;-72
2022/02/28 00:14:49;;;;;;;3.04;2.32;;;;;;;3.73;56.50;101920.40;460215;114;922668;-71
2022/02/28 00:15:52;;;;;;;3.34;2.23;;;;;;;3.74;56.47;101919.41;459951;114;922901;-71
2022/02/28 00:16:55;;;;;;;2.55;2.14;;;;;;;3.74;56.42;101924.81;457529;114;922697;-71
2022/02/28 00:17:58;;;;;;;2.41;2.21;;;;;;;3.72;56.37;101913.30;460676;114;922572;-71
2022/02/28 00:19:01;;;;;;;3.87;2.61;;;;;;;3.71;56.46;101918.81;462091;114;922557;-71
2022/02/28 00:20:07;;;;;;;2.62;2.04;;;;;;;3.71;56.47;101916.97;457285;114;922571;-71
2022/02/28 00:21:11;;;;;;;2.64;1.97;;;;;;;3.71;56.39;101910.72;457286;114;922988;-71
2022/02/28 00:22:14;;;;;;;4.24;2.11;;;;;;;3.69;56.37;101910.03;460804;114;922616;-71
2022/02/28 00:23:17;;;;;;;2.28;2.08;;;;;;;3.68;56.40;101916.41;450518;116;922636;-71
2022/02/28 00:24:20;;;;;;;2.53;2.33;;;;;;;3.65;56.37;101913.97;448168;114;922653;-71
2022/02/28 00:25:23;;;;;;;2.74;1.75;;;;;;;3.62;56.46;101909.72;458504;114;922552;-71
2022/02/28 00:26:26;;;;;;;2.30;2.10;;;;;;;3.60;56.45;101911.69;457073;114;922425;-71
2022/02/28 00:27:29;;;;;;;2.46;2.10;;;;;;;3.59;56.55;101917.21;457270;114;922561;-72
2022/02/28 00:28:32;;;;;;;2.23;2.03;;;;;;;3.59;56.55;101914.52;457491;114;922545;-71
2022/02/28 00:29:35;;;;;;;2.12;1.93;;;;;;;3.59;56.65;101914.52;459801;114;922683;-72
2022/02/28 00:30:39;;;;;;;3.14;2.32;;;;;;;3.60;56.71;101914.38;460463;114;922482;-72
2022/02/28 00:31:42;;;;;;;2.83;2.06;;;;;;;3.61;56.77;101910.70;458274;114;922539;-72
2022/02/28 00:32:45;;;;;;;2.86;2.17;;;;;;;3.63;56.66;101908.73;457130;114;922548;-72
2022/02/28 00:33:48;;;;;;;2.71;2.51;;;;;;;3.62;56.61;101909.72;459517;114;922583;-72
2022/02/28 00:34:52;;;;;;;3.56;2.33;;;;;;;3.62;56.67;101914.25;455431;114;922534;-72
2022/02/28 00:35:55;;;;;;;4.88;2.83;;;;;;;3.60;56.71;101908.98;457847;114;922701;-71
2022/02/28 00:36:58;;;;;;;2.56;2.31;;;;;;;3.62;56.74;101922.34;459802;114;922506;-72
2022/02/28 00:38:01;;;;;;;2.36;2.11;;;;;;;3.63;56.77;101915.97;459144;114;923501;-72
2022/02/28 00:39:04;;;;;;;2.39;2.19;;;;;;;3.64;56.71;101915.81;458476;114;922715;-71
2022/02/28 00:40:08;;;;;;;2.32;2.11;;;;;;;3.65;56.65;101919.36;458470;114;922585;-72
2022/02/28 00:41:14;;;;;;;2.18;1.92;;;;;;;3.64;56.52;101920.34;459002;114;922470;-71
2022/02/28 00:42:17;;;;;;;2.51;2.04;;;;;;;3.61;56.48;101921.49;457788;114;922586;-71
2022/02/28 00:43:20;;;;;;;2.66;2.22;;;;;;;3.57;56.48;101917.38;454702;114;922550;-71
2022/02/28 00:44:23;;;;;;;3.13;2.68;;;;;;;3.54;56.57;101919.47;460616;114;923037;-71
2022/02/28 00:45:26;;;;;;;3.43;2.22;;;;;;;3.51;56.64;101917.05;459043;114;930816;-71
2022/02/28 00:46:30;;;;;;;2.31;2.11;;;;;;;3.50;56.73;101918.04;458201;114;922538;-71
2022/02/28 00:47:34;;;;;;;1.85;1.71;;;;;;;3.50;56.78;101926.13;457543;114;922669;-71
2022/02/28 00:48:37;;;;;;;2.33;2.00;;;;;;;3.50;56.90;101916.20;458735;114;922965;-71
2022/02/28 00:49:40;;;;;;;1.93;1.77;;;;;;;3.51;56.87;101917.05;458125;114;922768;-71
2022/02/28 00:50:43;;;;;;;2.29;2.09;;;;;;;3.51;56.88;101912.52;455164;114;922532;-71
2022/02/28 00:51:46;;;;;;;2.77;2.11;;;;;;;3.51;56.82;101914.36;457259;114;922647;-71
2022/02/28 00:52:50;;;;;;;2.38;2.14;;;;;;;3.52;56.60;101914.23;455594;114;922572;-71
2022/02/28 00:53:53;;;;;;;2.33;2.13;;;;;;;3.51;56.86;101909.83;457763;114;922568;-72
2022/02/28 00:54:56;;;;;;;2.48;2.18;;;;;;;3.53;56.87;101915.09;459847;114;930398;-71
2022/02/28 00:55:59;;;;;;;2.59;2.09;;;;;;;3.52;56.92;101914.23;459161;114;922463;-72
2022/02/28 00:57:03;;;;;;;2.82;2.55;;;;;;;3.50;56.89;101920.73;458134;114;930384;-71
2022/02/28 00:58:07;;;;;;;2.29;1.98;;;;;;;3.46;56.85;101913.92;457128;114;922885;-72
2022/02/28 00:59:10;;;;;;;2.64;2.16;;;;;;;3.40;56.85;101920.71;461246;114;930288;-71
2022/02/28 01:00:16;;;;;;;2.66;2.46;;;;;;;3.38;57.02;101919.98;460738;114;922833;-71
2022/02/28 01:01:19;;;;;;;3.65;2.38;;;;;;;3.38;57.16;101921.81;457917;114;923020;-71
2022/02/28 01:02:22;;;;;;;2.34;2.14;;;;;;;3.37;57.14;101912.88;460547;114;922626;-71
2022/02/28 01:03:26;;;;;;;2.12;1.92;;;;;;;3.36;57.24;101917.41;462523;114;922968;-72
2022/02/28 01:04:29;;;;;;;2.55;2.35;;;;;;;3.38;57.28;101914.59;462401;113;923155;-71
2022/02/28 01:05:33;;;;;;;2.83;2.04;;;;;;;3.39;57.41;101912.75;460213;114;930421;-72
2022/02/28 01:06:38;;;;;;;3.33;2.36;;;;;;;3.41;57.41;101908.94;461495;114;922935;-71
2022/02/28 01:07:42;;;;;;;2.39;2.19;;;;;;;3.44;57.42;101910.49;458602;114;922603;-71
2022/02/28 01:08:45;;;;;;;2.33;2.12;;;;;;;3.45;57.32;101910.37;460268;114;930286;-71
2022/02/28 01:09:47;;;;;;;2.98;2.46;;;;;;;3.45;57.25;101907.67;460019;114;930405;-71
2022/02/28 01:10:51;;;;;;;2.33;2.12;;;;;;;3.44;57.23;101908.66;461367;113;922607;-71
2022/02/28 01:11:54;;;;;;;2.91;2.34;;;;;;;3.44;57.18;101905.10;460260;114;922847;-71
2022/02/28 01:12:57;;;;;;;2.61;2.04;;;;;;;3.41;57.13;101905.39;460509;114;930419;-71
2022/02/28 01:14:01;;;;;;;2.67;2.47;;;;;;;3.38;57.18;101906.50;461233;114;922619;-71
2022/02/28 01:15:06;;;;;;;2.45;2.20;;;;;;;3.35;57.21;101912.18;459489;114;922779;-71
2022/02/28 01:16:09;;;;;;;2.39;2.14;;;;;;;3.32;57.28;101912.43;459558;114;922539;-71
2022/02/28 01:17:13;;;;;;;2.52;2.14;;;;;;;3.28;57.31;101905.61;462355;114;922639;-71
2022/02/28 01:18:16;;;;;;;2.87;2.62;;;;;;;3.25;57.41;101905.90;459795;114;922992;-71
2022/02/28 01:19:18;;;;;;;2.24;2.04;;;;;;;3.23;57.56;101899.77;461106;114;922554;-71
2022/02/28 01:20:22;;;;;;;2.19;2.01;;;;;;;3.21;57.54;101901.74;460328;114;922777;-71
2022/02/28 01:21:25;;;;;;;8.38;2.20;;;;;;;3.20;57.63;101906.27;458390;113;930810;-71
2022/02/28 01:22:28;;;;;;;2.59;2.33;;;;;;;3.19;57.82;101904.59;460901;114;923096;-71
2022/02/28 01:23:31;;;;;;;2.31;2.04;;;;;;;3.19;57.75;101901.90;458703;114;922434;-71
2022/02/28 01:24:34;;;;;;;2.45;2.16;;;;;;;3.20;57.76;101905.42;461414;114;922472;-71
2022/02/28 01:25:37;;;;;;;2.52;2.09;;;;;;;3.22;57.84;101900.76;459558;114;922532;-71
2022/02/28 01:26:41;;;;;;;2.92;2.51;;;;;;;3.21;57.78;101905.30;461267;113;922667;-71
2022/02/28 01:27:44;;;;;;;2.76;2.39;;;;;;;3.21;57.75;101905.30;458376;114;922604;-72
2022/02/28 01:28:47;;;;;;;2.24;1.99;;;;;;;3.20;57.76;101908.97;459749;113;922628;-71
2022/02/28 01:29:50;;;;;;;2.44;2.13;;;;;;;3.19;57.79;101906.44;460165;114;922607;-70
2022/02/28 01:30:53;;;;;;;2.67;2.47;;;;;;;3.18;57.76;101902.88;462758;114;922430;-71
2022/02/28 01:31:56;;;;;;;2.52;2.33;;;;;;;3.15;57.81;101904.97;458949;114;922515;-71
2022/02/28 01:32:59;;;;;;;4.92;2.53;;;;;;;3.15;57.94;101904.97;459791;113;922466;-71
2022/02/28 01:34:02;;;;;;;2.69;2.41;;;;;;;3.15;58.00;101905.83;459478;114;922512;-71
2022/02/28 01:35:08;;;;;;;2.86;2.42;;;;;;;3.17;58.03;101900.31;460747;114;922527;-70
2022/02/28 01:36:12;;;;;;;2.44;2.24;;;;;;;3.20;57.99;101903.58;460002;114;922607;-71
2022/02/28 01:37:15;;;;;;;3.30;2.99;;;;;;;3.20;57.83;101897.33;459855;113;922704;-72
2022/02/28 01:38:19;;;;;;;3.32;2.53;;;;;;;3.17;57.77;101893.08;458375;114;922631;-72
2022/02/28 01:39:22;;;;;;;3.16;2.69;;;;;;;3.13;57.83;101896.19;460107;114;922920;-72
2022/02/28 01:40:25;;;;;;;2.82;2.62;;;;;;;3.09;57.94;101890.20;458236;114;923035;-72
2022/02/28 01:41:28;;;;;;;3.04;2.58;;;;;;;3.07;57.99;101897.58;458924;113;922612;-72
2022/02/28 01:42:32;;;;;;;2.76;2.45;;;;;;;3.04;57.97;101891.58;458797;114;922555;-71
2022/02/28 01:43:35;;;;;;;2.92;2.54;;;;;;;3.01;58.09;101891.87;460322;114;922516;-72
2022/02/28 01:44:39;;;;;;;2.96;2.56;;;;;;;3.01;58.22;101892.72;458536;113;922608;-72
2022/02/28 01:45:42;;;;;;;2.62;2.41;;;;;;;3.03;58.30;101893.45;460132;114;922490;-71
2022/02/28 01:46:45;;;;;;;3.46;3.18;;;;;;;3.05;58.27;101893.30;462787;114;922656;-71
2022/02/28 01:47:49;;;;;;;3.12;2.64;;;;;;;3.05;58.26;101896.84;457325;114;922582;-71
2022/02/28 01:48:53;;;;;;;2.81;2.61;;;;;;;3.02;58.20;101893.58;461764;114;922594;-71
2022/02/28 01:49:56;;;;;;;3.39;2.35;;;;;;;3.00;58.31;101892.84;459685;114;922504;-72
2022/02/28 01:50:59;;;;;;;2.88;2.61;;;;;;;2.98;58.37;101887.58;450087;116;922942;-71
2022/02/28 01:52:02;;;;;;;2.94;2.58;;;;;;;2.99;58.46;101893.83;453216;116;922624;-71
2022/02/28 01:53:05;;;;;;;2.47;2.27;;;;;;;3.00;58.52;101890.16;458834;114;922906;-71
2022/02/28 01:54:08;;;;;;;3.12;2.66;;;;;;;3.01;58.53;101890.03;460423;114;922926;-72
2022/02/28 01:55:13;;;;;;;3.15;2.85;;;;;;;3.03;58.56;101888.06;460998;113;922610;-71
2022/02/28 01:56:17;;;;;;;2.91;2.64;;;;;;;3.06;58.56;101885.09;459583;114;927171;-71
2022/02/28 01:57:20;;;;;;;3.14;2.79;;;;;;;3.08;58.57;101883.12;459148;114;922416;-73
2022/02/28 01:58:23;;;;;;;3.51;3.21;;;;;;;3.11;58.52;101884.68;460489;113;922653;-71
2022/02/28 01:59:26;;;;;;;3.44;3.14;;;;;;;3.13;58.56;101885.41;461626;113;923183;-71
2022/02/28 02:00:32;;;;;;;3.51;3.21;;;;;;;3.16;58.40;101885.98;461905;113;922515;-70
2022/02/28 02:01:37;;;;;;;3.13;2.86;;;;;;;3.17;58.26;101886.84;460224;113;922943;-71
2022/02/28 02:02:40;;;;;;;2.73;2.53;;;;;;;3.16;58.24;101875.20;460614;113;922666;-71
2022/02/28 02:03:44;;;;;;;6.99;2.68;;;;;;;3.15;58.27;101884.27;463670;113;922436;-70
2022/02/28 02:04:49;;;;;;;3.60;3.30;;;;;;;3.15;58.35;101884.27;461772;113;923096;-69
2022/02/28 02:05:51;;;;;;;3.22;2.54;;;;;;;3.17;58.19;101884.14;460747;113;922987;-68
2022/02/28 02:06:59;;;;;;;3.11;2.75;;;;;;;3.15;58.24;101884.27;461682;113;922909;-71
2022/02/28 02:08:06;;;;;;;3.05;2.64;;;;;;;3.15;58.19;101878.02;461640;113;923511;-71
2022/02/28 02:09:11;;;;;;;2.98;2.78;;;;;;;3.15;58.15;101878.02;463104;113;922539;-69
2022/02/28 02:10:18;;;;;;;3.20;2.92;;;;;;;3.14;58.10;101885.25;462808;113;923124;-69
2022/02/28 02:11:22;;;;;;;2.95;2.64;;;;;;;3.12;58.00;101883.70;460460;113;922951;-70
2022/02/28 02:12:28;;;;;;;3.02;2.72;;;;;;;3.09;57.96;101883.98;458064;113;923029;-69
2022/02/28 02:13:33;;;;;;;3.39;2.77;;;;;;;3.06;58.06;101881.54;454421;116;922753;-69
2022/02/28 02:14:39;;;;;;;3.21;2.94;;;;;;;3.05;58.17;101885.21;454936;113;922992;-70
2022/02/28 02:15:46;;;;;;;3.22;2.80;;;;;;;3.04;58.22;101878.11;462523;113;922719;-69
2022/02/28 02:16:50;;;;;;;3.36;3.06;;;;;;;3.06;58.33;101881.54;457821;113;922551;-69
2022/02/28 02:17:57;;;;;;;3.34;3.04;;;;;;;3.08;58.28;101877.73;462720;113;922500;-70
2022/02/28 02:18:59;;;;;;;3.27;2.99;;;;;;;3.11;58.24;101876.59;461105;113;930542;-68
2022/02/28 02:20:09;;;;;;;3.92;3.62;;;;;;;3.12;58.12;101875.61;459011;113;922720;-68
2022/02/28 02:21:12;;;;;;;4.94;3.23;;;;;;;3.12;58.21;101875.61;462161;113;922516;-68
2022/02/28 02:22:21;;;;;;;3.04;2.76;;;;;;;3.14;58.27;101873.65;460801;113;922571;-66
2022/02/28 02:23:27;;;;;;;3.36;3.07;;;;;;;3.17;58.26;101866.13;458515;113;922540;-70
2022/02/28 02:24:29;;;;;;;3.27;2.93;;;;;;;3.20;58.33;101873.08;461173;113;922559;-68
2022/02/28 02:25:33;;;;;;;3.37;3.07;;;;;;;3.24;58.23;101875.39;460715;113;922621;-69
2022/02/28 02:26:36;;;;;;;3.20;2.87;;;;;;;3.25;58.03;101873.55;460305;113;922922;-68
2022/02/28 02:27:39;;;;;;;3.16;2.88;;;;;;;3.26;57.98;101877.92;464508;113;922620;-68
2022/02/28 02:28:42;;;;;;;3.52;2.91;;;;;;;3.24;57.78;101872.70;462420;113;922557;-70
2022/02/28 02:29:45;;;;;;;3.40;3.11;;;;;;;3.19;57.73;101866.00;460283;113;922995;-69
2022/02/28 02:30:51;;;;;;;3.80;2.86;;;;;;;3.13;57.73;101862.02;452933;116;922955;-70
2022/02/28 02:31:54;;;;;;;2.99;2.72;;;;;;;3.08;57.80;101864.27;452644;113;922722;-70
2022/02/28 02:32:57;;;;;;;4.91;2.94;;;;;;;3.06;57.91;101862.67;461116;113;922886;-70
2022/02/28 02:34:01;;;;;;;3.58;3.00;;;;;;;3.04;57.95;101864.64;453016;115;922782;-71
2022/02/28 02:35:04;;;;;;;3.43;3.13;;;;;;;3.02;58.01;101867.49;453091;115;922656;-68
2022/02/28 02:36:08;;;;;;;3.29;2.85;;;;;;;3.01;57.98;101859.53;463025;113;922563;-70
2022/02/28 02:37:13;;;;;;;3.32;3.06;;;;;;;3.01;57.98;101859.53;461458;113;922612;-69
2022/02/28 02:38:16;;;;;;;3.25;2.96;;;;;;;2.99;58.08;101866.89;463433;113;922524;-68
2022/02/28 02:39:18;;;;;;;3.03;2.82;;;;;;;2.97;58.02;101867.05;462047;113;922940;-69
2022/02/28 02:40:22;;;;;;;3.39;3.09;;;;;;;2.94;58.04;101861.91;459278;113;922459;-71
2022/02/28 02:41:25;;;;;;;3.16;2.84;;;;;;;2.92;58.12;101862.03;460693;113;922967;-68
2022/02/28 02:42:28;;;;;;;3.25;2.95;;;;;;;2.89;58.12;101867.70;460513;113;922582;-71
2022/02/28 02:43:31;;;;;;;3.38;3.10;;;;;;;2.88;58.19;101870.52;460817;113;922558;-68
2022/02/28 02:44:35;;;;;;;3.54;3.21;;;;;;;2.85;58.21;101865.42;460710;113;922649;-70
2022/02/28 02:45:38;;;;;;;4.32;2.98;;;;;;;2.83;58.24;101870.07;460500;113;922706;-69
2022/02/28 02:46:46;;;;;;;3.76;3.22;;;;;;;2.79;58.17;101872.19;465460;113;922777;-71
2022/02/28 02:47:55;;;;;;;3.46;3.16;;;;;;;2.74;58.21;101863.66;459524;113;922603;-71
2022/02/28 02:48:58;;;;;;;3.24;2.97;;;;;;;2.72;58.31;101871.00;460718;113;922655;-70
2022/02/28 02:50:03;;;;;;;3.68;3.06;;;;;;;2.70;58.41;101872.97;464000;113;922625;-69
2022/02/28 02:51:06;;;;;;;3.42;3.03;;;;;;;2.67;58.37;101873.24;453906;116;922704;-70
2022/02/28 02:52:09;;;;;;;3.27;3.02;;;;;;;2.64;58.33;101867.28;452334;113;922704;-71
2022/02/28 02:53:13;;;;;;;3.54;3.22;;;;;;;2.61;58.48;101873.77;461916;113;922583;-69
2022/02/28 02:54:18;;;;;;;3.87;3.29;;;;;;;2.59;58.49;101874.91;459122;113;922875;-70
2022/02/28 02:55:21;;;;;;;3.77;3.43;;;;;;;2.55;58.38;101873.44;458907;113;922631;-72
2022/02/28 02:56:25;;;;;;;3.69;3.36;;;;;;;2.52;58.63;101869.19;451467;115;922834;-69
2022/02/28 02:57:28;;;;;;;4.15;3.77;;;;;;;2.50;58.75;101872.00;455404;113;922769;-70
2022/02/28 02:58:31;;;;;;;2.92;2.71;;;;;;;2.50;58.77;101871.14;461090;113;922494;-71
2022/02/28 02:59:35;;;;;;;3.65;3.35;;;;;;;2.47;58.79;101869.59;460805;113;923305;-69
2022/02/28 03:00:38;;;;;;;3.62;3.32;;;;;;;2.47;58.89;101871.42;455007;115;930699;-69
2022/02/28 03:01:43;;;;;;;3.59;3.29;;;;;;;2.46;58.94;101875.95;455081;115;922538;-69
2022/02/28 03:02:48;;;;;;;3.99;3.48;;;;;;;2.47;59.01;101868.73;451945;115;922614;-68
2022/02/28 03:03:51;;;;;;;3.89;3.42;;;;;;;2.48;59.03;101868.58;452637;115;930707;-70
2022/02/28 03:04:56;;;;;;;3.67;3.36;;;;;;;2.50;58.98;101865.77;453761;115;922747;-69
2022/02/28 03:05:59;;;;;;;4.89;3.58;;;;;;;2.50;58.98;101865.77;453376;115;922650;-71
2022/02/28 03:07:05;;;;;;;3.55;3.23;;;;;;;2.48;58.98;101870.44;450990;115;922861;-70
2022/02/28 03:08:09;;;;;;;3.96;3.57;;;;;;;2.49;58.99;101875.67;446546;118;922680;-70
2022/02/28 03:09:14;;;;;;;4.81;3.89;;;;;;;2.50;58.98;101865.77;444649;115;922801;-70
2022/02/28 03:10:18;;;;;;;3.81;3.51;;;;;;;2.48;58.99;101871.27;451653;115;922842;-69
2022/02/28 03:11:22;;;;;;;3.64;3.34;;;;;;;2.49;58.91;101867.59;445520;118;922952;-70
2022/02/28 03:12:24;;;;;;;3.81;3.30;;;;;;;2.47;58.90;101866.03;447027;115;922588;-70
2022/02/28 03:13:28;;;;;;;3.69;3.35;;;;;;;2.46;58.90;101867.87;452002;115;922973;-69
2022/02/28 03:14:31;;;;;;;3.63;3.25;;;;;;;2.44;58.87;101871.66;452491;115;922757;-70
2022/02/28 03:15:35;;;;;;;3.84;3.39;;;;;;;2.42;58.89;101873.66;445531;118;922949;-69
2022/02/28 03:16:40;;;;;;;3.58;3.32;;;;;;;2.41;59.01;101877.32;445195;118;922783;-69
2022/02/28 03:17:43;;;;;;;4.01;3.69;;;;;;;2.40;59.01;101872.91;444428;115;922726;-69
2022/02/28 03:18:47;;;;;;;3.59;3.26;;;;;;;2.40;59.02;101875.61;452841;115;922529;-70
2022/02/28 03:19:50;;;;;;;3.77;3.46;;;;;;;2.40;59.09;101876.47;456419;115;922492;-70
2022/02/28 03:20:54;;;;;;;3.96;3.39;;;;;;;2.41;59.10;101872.80;451255;115;922724;-69
2022/02/28 03:21:59;;;;;;;3.97;3.66;;;;;;;2.43;59.08;101872.64;450756;115;923622;-68
2022/02/28 03:23:02;;;;;;;4.06;3.66;;;;;;;2.41;59.04;101874.63;446117;118;923008;-70
2022/02/28 03:24:05;;;;;;;4.01;3.64;;;;;;;2.41;59.04;101877.32;444592;117;922968;-69
2022/02/28 03:25:09;;;;;;;4.92;3.79;;;;;;;2.41;59.05;101883.56;435206;120;922772;-69
2022/02/28 03:26:14;;;;;;;3.78;3.48;;;;;;;2.42;59.16;101877.20;446969;115;930669;-69
2022/02/28 03:27:17;;;;;;;3.86;3.53;;;;;;;2.45;59.15;101884.14;454024;115;922896;-69
2022/02/28 03:28:22;;;;;;;4.87;4.37;;;;;;;2.46;59.11;101883.16;452001;115;923003;-70
2022/02/28 03:29:25;;;;;;;4.42;3.67;;;;;;;2.45;58.98;101889.53;451064;115;922612;-69
2022/02/28 03:30:28;;;;;;;4.17;3.77;;;;;;;2.43;59.02;101883.41;454504;115;922577;-70
2022/02/28 03:31:31;;;;;;;4.05;3.67;;;;;;;2.43;59.02;101883.41;451258;115;922905;-70
2022/02/28 03:32:35;;;;;;;4.30;3.91;;;;;;;2.41;58.88;101880.02;451812;115;923021;-71
2022/02/28 03:33:38;;;;;;;3.49;3.19;;;;;;;2.39;58.92;101884.66;456557;115;922864;-69
2022/02/28 03:34:41;;;;;;;3.70;3.30;;;;;;;2.38;58.92;101877.56;454159;115;922948;-71
2022/02/28 03:35:44;;;;;;;4.01;3.00;;;;;;;2.36;58.80;101876.86;453090;115;922798;-67
2022/02/28 03:36:49;;;;;;;3.78;3.48;;;;;;;2.33;58.77;101880.66;452940;115;923158;-70
2022/02/28 03:37:52;;;;;;;3.21;2.92;;;;;;;2.32;58.74;101888.84;451033;115;930553;-68
2022/02/28 03:38:57;;;;;;;2.87;2.67;;;;;;;2.28;58.68;101882.88;450793;115;922993;-67
2022/02/28 03:40:00;;;;;;;4.49;3.03;;;;;;;2.25;58.67;101882.30;452541;115;923807;-70
2022/02/28 03:41:03;;;;;;;3.61;3.31;;;;;;;2.21;58.68;101876.30;453287;115;922832;-70
2022/02/28 03:42:07;;;;;;;3.34;2.95;;;;;;;2.18;58.64;101884.64;453278;115;922493;-70
2022/02/28 03:43:10;;;;;;;3.12;2.84;;;;;;;2.16;58.73;101877.67;452488;115;922520;-69
2022/02/28 03:44:17;;;;;;;2.90;2.70;;;;;;;2.14;58.69;101885.03;441232;118;922732;-69
2022/02/28 03:45:22;;;;;;;3.19;2.86;;;;;;;2.12;58.66;101878.92;443030;117;923052;-69
2022/02/28 03:46:25;;;;;;;2.77;2.46;;;;;;;2.10;58.79;101881.73;438003;120;922768;-69
2022/02/28 03:47:39;;;;;;;3.22;2.93;;;;;;;2.08;58.78;101884.57;416715;125;923309;-68
2022/02/28 03:49:00;;;;;;;3.27;2.89;;;;;;;2.04;58.83;101883.09;424991;121;922935;-72
2022/02/28 03:50:08;;;;;;;3.97;3.01;;;;;;;2.03;58.91;101894.00;452305;115;923061;-69
2022/02/28 03:51:11;;;;;;;3.17;2.53;;;;;;;2.01;58.90;101887.89;452848;115;922515;-70
2022/02/28 03:52:14;;;;;;;2.58;2.32;;;;;;;2.00;58.94;101886.17;444885;118;922752;-69
2022/02/28 03:53:19;;;;;;;2.80;2.60;;;;;;;1.99;58.89;101882.62;441804;117;922773;-69
2022/02/28 03:54:22;;;;;;;2.92;2.62;;;;;;;2.00;59.01;101883.48;452705;115;922572;-71
2022/02/28 03:55:27;;;;;;;2.99;2.74;;;;;;;2.01;59.14;101891.44;455365;115;923438;-71
2022/02/28 03:56:31;;;;;;;4.10;2.88;;;;;;;2.02;59.13;101895.84;455521;115;922615;-70
2022/02/28 03:57:34;;;;;;;2.58;2.38;;;;;;;2.03;59.03;101894.00;445393;118;923488;-68
2022/02/28 03:58:39;;;;;;;2.79;2.59;;;;;;;2.03;59.08;101889.48;445380;115;930525;-70
2022/02/28 03:59:42;;;;;;;4.89;2.75;;;;;;;2.03;59.13;101894.86;454299;115;922506;-69
2022/02/28 04:00:45;;;;;;;3.24;2.94;;;;;;;2.06;59.21;101891.05;458081;113;923002;-69
2022/02/28 04:01:50;;;;;;;3.01;2.79;;;;;;;2.09;59.06;101896.19;459167;113;922911;-68
2022/02/28 04:02:55;;;;;;;3.16;2.70;;;;;;;2.15;59.28;101897.52;462050;113;922651;-70
2022/02/28 04:04:01;;;;;;;3.08;2.85;;;;;;;2.20;59.15;101906.05;461119;113;923205;-67
2022/02/28 04:05:04;;;;;;;2.87;2.67;;;;;;;2.21;59.07;101899.66;459982;113;922674;-70
2022/02/28 04:06:08;;;;;;;2.93;2.61;;;;;;;2.25;59.14;101901.14;458968;113;922557;-70
2022/02/28 04:07:13;;;;;;;2.89;2.66;;;;;;;2.29;58.96;101905.27;460412;113;922783;-70
2022/02/28 04:08:16;;;;;;;3.64;3.32;;;;;;;2.29;58.86;101900.74;460448;113;922540;-69
2022/02/28 04:09:19;;;;;;;3.47;3.17;;;;;;;2.31;58.83;101909.55;461094;113;922506;-70
2022/02/28 04:10:22;;;;;;;2.88;2.66;;;;;;;2.33;58.91;101907.56;461077;113;922998;-68
2022/02/28 04:11:25;;;;;;;3.36;3.16;;;;;;;2.36;58.70;101906.47;460538;113;922694;-70
2022/02/28 04:12:28;;;;;;;3.72;3.08;;;;;;;2.37;58.70;101905.48;459456;113;922503;-69
2022/02/28 04:13:32;;;;;;;3.04;2.84;;;;;;;2.37;58.65;101908.19;464000;113;930617;-70
2022/02/28 04:14:35;;;;;;;3.11;2.81;;;;;;;2.41;58.83;101910.48;464566;113;930378;-70
2022/02/28 04:15:38;;;;;;;3.89;3.13;;;;;;;2.46;58.90;101908.25;460108;113;922489;-70
2022/02/28 04:16:41;;;;;;;3.10;2.80;;;;;;;2.54;58.83;101910.27;460203;113;922884;-70
2022/02/28 04:18:03;;;;;;;3.18;2.88;;;;;;;2.59;58.73;101913.45;462875;113;923044;-70
2022/02/28 04:19:08;;;;;;;3.56;2.91;;;;;;;2.64;58.48;101913.05;462115;113;923028;-69
2022/02/28 04:20:16;;;;;;;3.27;3.00;;;;;;;2.67;58.43;101912.78;460283;113;922830;-69
2022/02/28 04:21:19;;;;;;;4.02;3.52;;;;;;;2.71;58.10;101908.83;460778;113;922592;-68
2022/02/28 04:22:23;;;;;;;3.36;3.12;;;;;;;2.73;58.07;101909.56;458818;113;923073;-71
2022/02/28 04:23:26;;;;;;;4.74;4.31;;;;;;;2.74;57.94;101912.13;459367;113;922628;-70
2022/02/28 04:24:29;;;;;;;3.06;2.80;;;;;;;2.74;57.95;101905.89;461661;113;922993;-70
2022/02/28 04:25:33;;;;;;;4.81;3.35;;;;;;;2.75;57.76;101911.16;463108;113;922937;-69
2022/02/28 04:26:37;;;;;;;5.53;3.26;;;;;;;2.75;57.67;101910.30;460955;113;922615;-70
2022/02/28 04:27:43;;;;;;;3.81;3.23;;;;;;;2.76;57.61;101911.98;450970;115;922599;-70
2022/02/28 04:28:48;;;;;;;3.57;2.87;;;;;;;2.77;57.40;101919.08;457361;113;922622;-69
2022/02/28 04:29:51;;;;;;;3.16;2.84;;;;;;;2.77;57.30;101921.77;458502;113;922974;-70
2022/02/28 04:30:55;;;;;;;3.93;3.06;;;;;;;2.74;57.16;101917.52;461664;113;931116;-69
2022/02/28 04:32:00;;;;;;;4.12;3.11;;;;;;;2.73;57.07;101921.19;461112;113;922561;-70
2022/02/28 04:33:03;;;;;;;3.31;3.01;;;;;;;2.72;57.11;101916.78;453531;115;922587;-71
2022/02/28 04:34:06;;;;;;;3.85;2.94;;;;;;;2.71;57.11;101912.38;451839;113;922722;-69
2022/02/28 04:35:10;;;;;;;3.31;3.01;;;;;;;2.71;57.07;101916.91;462975;113;922528;-69
2022/02/28 04:36:14;;;;;;;3.28;2.98;;;;;;;2.72;57.08;101907.84;463747;113;922561;-69
2022/02/28 04:37:18;;;;;;;3.40;3.01;;;;;;;2.73;57.02;101920.34;460891;113;922554;-69
2022/02/28 04:38:23;;;;;;;3.27;2.92;;;;;;;2.73;56.87;101907.73;459364;113;922633;-70
2022/02/28 04:39:26;;;;;;;3.58;2.85;;;;;;;2.74;56.86;101908.58;463086;113;922989;-69
2022/02/28 04:40:31;;;;;;;3.14;2.84;;;;;;;2.74;56.77;101911.28;461775;113;922670;-68
2022/02/28 04:41:34;;;;;;;3.11;2.87;;;;;;;2.73;56.71;101920.34;460979;113;922533;-70
2022/02/28 04:42:37;;;;;;;2.99;2.73;;;;;;;2.70;56.64;101913.36;463031;113;930610;-71
2022/02/28 04:43:40;;;;;;;5.41;3.41;;;;;;;2.70;56.70;101918.74;463294;113;922654;-70
2022/02/28 04:44:43;;;;;;;3.33;3.04;;;;;;;2.69;56.55;101917.06;459629;113;922594;-69
2022/02/28 04:45:46;;;;;;;2.99;2.79;;;;;;;2.67;56.54;101919.02;461550;113;922529;-70
2022/02/28 04:46:50;;;;;;;2.90;2.69;;;;;;;2.64;56.46;101913.05;463029;113;922543;-71
2022/02/28 04:47:58;;;;;;;3.42;3.09;;;;;;;2.61;56.65;101914.16;458168;113;923466;-70
2022/02/28 04:49:19;;;;;;;3.44;2.88;;;;;;;2.61;56.74;101921.37;461523;113;923337;-70
2022/02/28 04:50:24;;;;;;;3.03;2.83;;;;;;;2.62;56.82;101923.95;461826;113;922557;-69
2022/02/28 04:51:28;;;;;;;3.04;2.74;;;;;;;2.64;56.71;101918.44;462258;113;922890;-68
2022/02/28 04:52:31;;;;;;;2.78;2.57;;;;;;;2.66;56.65;101913.76;459321;113;922917;-70
2022/02/28 04:53:34;;;;;;;2.94;2.67;;;;;;;2.66;56.63;101922.69;461664;114;930622;-70
2022/02/28 04:54:37;;;;;;;2.51;2.31;;;;;;;2.67;56.56;101920.86;464024;113;922589;-69
2022/02/28 04:55:40;;;;;;;2.66;2.46;;;;;;;2.67;56.46;101928.94;456482;113;930491;-68
2022/02/28 04:56:43;;;;;;;2.75;2.55;;;;;;;2.67;56.40;101924.41;462205;113;922487;-69
2022/02/28 04:57:47;;;;;;;3.24;2.63;;;;;;;2.67;56.44;101932.48;464640;113;922890;-69